Time;durP1;ratioP1;P1;durP2;ratioP2;P2;SDS_P1;SDS_P2;PMS_P1;PMS_P2;Temp;Humidity;BMP_temperature;BMP_pressure;BME280_temperature;BME280_humidity;BME280_pressure;Samples;Min_cycle;Max_cycle;Signal;HPM_P1;HPM_P2
2023/01/08 00:01:49;;;;;;;3.10;2.00;;;10.40;99.90;;;;;;5088114;28;20481;-63
2023/01/08 00:04:16;;;;;;;4.13;2.67;;;10.40;99.90;;;;;;5070616;28;20035;-63
2023/01/08 00:06:42;;;;;;;3.90;2.25;;;10.40;99.90;;;;;;5090487;28;20020;-63
2023/01/08 00:09:09;;;;;;;5.18;2.40;;;10.40;99.90;;;;;;5094284;28;20104;-63
2023/01/08 00:11:35;;;;;;;7.53;2.78;;;10.40;99.90;;;;;;5079183;28;20036;-63
2023/01/08 00:14:00;;;;;;;5.55;2.58;;;10.40;99.90;;;;;;5094525;28;20028;-63
2023/01/08 00:16:26;;;;;;;3.88;2.30;;;10.40;99.90;;;;;;5088468;28;20020;-63
2023/01/08 00:18:52;;;;;;;6.25;2.65;;;10.40;99.90;;;;;;5094225;28;20020;-63
2023/01/08 00:21:17;;;;;;;3.65;1.98;;;10.40;99.90;;;;;;5072451;28;20508;-63
2023/01/08 00:23:43;;;;;;;5.95;2.50;;;10.40;99.90;;;;;;5089818;28;20032;-63
2023/01/08 00:26:09;;;;;;;3.55;1.98;;;10.40;99.90;;;;;;5095530;28;20028;-63
2023/01/08 00:28:35;;;;;;;5.28;2.70;;;10.50;99.90;;;;;;5092499;28;20043;-63
2023/01/08 00:31:08;;;;;;;6.03;2.40;;;10.50;99.90;;;;;;5070297;28;20028;-63
2023/01/08 00:33:33;;;;;;;6.30;2.20;;;10.50;99.90;;;;;;5088198;28;20016;-63
2023/01/08 00:35:59;;;;;;;3.85;2.30;;;10.50;99.90;;;;;;5093049;28;20027;-63
2023/01/08 00:38:28;;;;;;;6.15;2.55;;;10.40;99.90;;;;;;5091308;28;20229;-63
2023/01/08 00:40:54;;;;;;;6.18;2.30;;;10.40;99.90;;;;;;5094910;28;20649;-63
2023/01/08 00:43:20;;;;;;;4.60;2.25;;;10.40;99.90;;;;;;5095874;28;20035;-63
2023/01/08 00:45:45;;;;;;;5.72;2.15;;;10.40;99.90;;;;;;5093779;28;20059;-63
2023/01/08 00:48:11;;;;;;;3.85;2.25;;;10.40;99.90;;;;;;5093638;28;20062;-63
2023/01/08 00:50:37;;;;;;;6.22;2.38;;;10.40;99.90;;;;;;5094613;28;20024;-63
2023/01/08 00:53:02;;;;;;;4.47;2.65;;;10.30;99.90;;;;;;5088854;28;20031;-63
2023/01/08 00:55:28;;;;;;;5.93;2.45;;;10.30;99.90;;;;;;5090927;28;20105;-63
2023/01/08 00:57:54;;;;;;;3.92;2.08;;;10.30;99.90;;;;;;5096249;28;20534;-63
2023/01/08 01:00:20;;;;;;;4.38;2.35;;;10.30;99.90;;;;;;5087990;28;20024;-63
2023/01/08 01:02:46;;;;;;;5.30;2.92;;;10.30;99.90;;;;;;5095956;28;20038;-63
2023/01/08 01:05:14;;;;;;;5.10;2.75;;;10.40;99.90;;;;;;5101845;28;20397;-63
2023/01/08 01:07:41;;;;;;;5.93;2.90;;;10.40;99.90;;;;;;5084774;28;20040;-63
2023/01/08 01:10:07;;;;;;;6.85;2.80;;;10.30;99.90;;;;;;5100828;28;20103;-63
2023/01/08 01:12:32;;;;;;;7.47;3.10;;;10.40;99.90;;;;;;5091586;28;20032;-63
2023/01/08 01:14:58;;;;;;;4.07;2.10;;;10.30;99.90;;;;;;5094867;28;20035;-63
2023/01/08 01:17:24;;;;;;;5.43;2.97;;;10.30;99.90;;;;;;5097378;28;20031;-63
2023/01/08 01:19:49;;;;;;;7.00;2.53;;;10.30;99.90;;;;;;5076874;28;20024;-63
2023/01/08 01:22:15;;;;;;;5.60;2.35;;;10.30;99.90;;;;;;5099093;28;20043;-63
2023/01/08 01:24:40;;;;;;;7.63;2.60;;;10.20;99.90;;;;;;5095331;28;20035;-63
2023/01/08 01:27:06;;;;;;;5.43;2.28;;;10.20;99.90;;;;;;5096647;28;20104;-63
2023/01/08 01:29:31;;;;;;;4.15;2.33;;;10.20;99.90;;;;;;5093647;28;20024;-63
2023/01/08 01:31:57;;;;;;;3.75;2.53;;;10.20;99.90;;;;;;5094383;28;20035;-63
2023/01/08 01:34:22;;;;;;;7.20;2.35;;;10.20;99.90;;;;;;5093904;28;20024;-63
2023/01/08 01:36:48;;;;;;;7.90;3.63;;;10.20;99.90;;;;;;5094007;28;20059;-63
2023/01/08 01:39:13;;;;;;;4.82;3.00;;;10.20;99.90;;;;;;5090652;28;20024;-63
2023/01/08 01:41:44;;;;;;;4.60;2.33;;;10.10;99.90;;;;;;5080950;28;20042;-63
2023/01/08 01:44:37;;;;;;;5.38;2.92;;;10.20;99.90;;;;;;5093167;28;20099;-63
2023/01/08 01:47:24;;;;;;;6.57;3.08;;;10.20;99.90;;;;;;5091012;28;20027;-63
2023/01/08 01:50:04;;;;;;;8.70;2.90;;;10.10;99.90;;;;;;5093781;28;20385;-63
2023/01/08 01:52:33;;;;;;;5.35;3.30;;;10.10;99.90;;;;;;5072394;28;20024;-63
2023/01/08 01:55:00;;;;;;;6.65;2.58;;;10.10;99.90;;;;;;5095747;27;20020;-63
2023/01/08 01:57:27;;;;;;;4.63;2.38;;;10.10;99.90;;;;;;5093391;28;20073;-63
2023/01/08 01:59:54;;;;;;;8.35;3.63;;;10.20;99.90;;;;;;5095828;28;20099;-63
2023/01/08 02:02:20;;;;;;;4.75;2.58;;;10.20;99.90;;;;;;5096991;28;20040;-63
2023/01/08 02:04:45;;;;;;;7.60;2.63;;;10.20;99.90;;;;;;5090641;28;20524;-63
2023/01/08 02:07:26;;;;;;;4.40;2.30;;;10.20;99.90;;;;;;5096238;28;20477;-63
2023/01/08 02:10:05;;;;;;;6.00;2.67;;;10.20;99.90;;;;;;5076613;28;20115;-63
2023/01/08 02:13:06;;;;;;;6.87;2.70;;;10.30;99.90;;;;;;5090097;28;20024;-63
2023/01/08 02:15:40;;;;;;;7.53;2.42;;;10.30;99.90;;;;;;5080602;28;20111;-63
2023/01/08 02:18:36;;;;;;;6.43;3.10;;;10.30;99.90;;;;;;5074916;28;20024;-63
2023/01/08 02:21:08;;;;;;;6.55;2.20;;;10.30;99.90;;;;;;5093187;28;20016;-63
2023/01/08 02:23:37;;;;;;;3.00;2.30;;;10.30;99.90;;;;;;5099737;28;20027;-63
2023/01/08 02:26:08;;;;;;;4.82;2.55;;;10.20;99.90;;;;;;5090961;28;20027;-63
2023/01/08 02:28:39;;;;;;;5.85;2.70;;;10.30;99.90;;;;;;5095451;28;20114;-63
2023/01/08 02:31:06;;;;;;;4.55;2.63;;;10.30;99.90;;;;;;5092588;28;20020;-63
2023/01/08 02:33:32;;;;;;;5.00;2.90;;;10.30;99.90;;;;;;5092294;28;20020;-63
2023/01/08 02:36:30;;;;;;;7.90;3.00;;;10.20;99.90;;;;;;5091716;28;20035;-64
2023/01/08 02:39:26;;;;;;;3.03;1.92;;;10.20;99.90;;;;;;5074279;28;20023;-64
2023/01/08 02:41:57;;;;;;;3.92;1.90;;;10.20;99.90;;;;;;5071860;28;20016;-63
2023/01/08 02:44:47;;;;;;;6.88;2.00;;;10.10;99.90;;;;;;5091939;28;20053;-64
2023/01/08 02:47:21;;;;;;;4.47;1.83;;;10.10;99.90;;;;;;5089546;28;20513;-64
2023/01/08 02:49:55;;;;;;;5.97;1.95;;;10.00;99.90;;;;;;5092822;28;20035;-64
2023/01/08 02:52:23;;;;;;;3.45;1.30;;;9.90;99.90;;;;;;5096385;28;20153;-63
2023/01/08 02:54:49;;;;;;;6.72;1.67;;;9.90;99.90;;;;;;5093603;28;20028;-64
2023/01/08 02:57:16;;;;;;;7.70;1.30;;;9.80;99.90;;;;;;5112948;27;20016;-63
2023/01/08 02:59:43;;;;;;;2.80;0.90;;;9.80;99.90;;;;;;5087532;28;20115;-63
2023/01/08 03:02:10;;;;;;;4.68;0.90;;;9.70;99.90;;;;;;5095415;28;20016;-64
2023/01/08 03:04:52;;;;;;;7.65;1.73;;;9.70;99.90;;;;;;5092974;28;20913;-63
2023/01/08 03:07:17;;;;;;;2.80;0.80;;;9.70;99.90;;;;;;5092338;28;20553;-63
2023/01/08 03:09:44;;;;;;;4.72;0.82;;;9.60;99.90;;;;;;5091926;28;20023;-63
2023/01/08 03:12:26;;;;;;;3.58;0.85;;;9.60;99.90;;;;;;5090351;28;21498;-64
2023/01/08 03:15:03;;;;;;;3.33;0.77;;;9.50;99.90;;;;;;5109795;27;20019;-63
2023/01/08 03:17:35;;;;;;;5.18;0.98;;;9.50;99.90;;;;;;5108122;27;20013;-64
2023/01/08 03:20:09;;;;;;;2.40;0.70;;;9.50;99.90;;;;;;5094781;28;20016;-63
2023/01/08 03:22:38;;;;;;;4.30;0.50;;;9.40;99.90;;;;;;5076166;28;20093;-63
2023/01/08 03:25:05;;;;;;;2.45;0.63;;;9.30;99.90;;;;;;5071845;28;20016;-66
2023/01/08 03:27:36;;;;;;;6.93;0.90;;;9.30;99.90;;;;;;5094182;28;20069;-64
2023/01/08 03:30:03;;;;;;;4.07;0.77;;;9.30;99.90;;;;;;5074019;28;20092;-64
2023/01/08 03:32:30;;;;;;;4.53;0.80;;;9.20;99.90;;;;;;5095402;28;20027;-64
2023/01/08 03:34:57;;;;;;;4.95;0.60;;;9.20;99.90;;;;;;5097462;28;20024;-63
2023/01/08 03:37:27;;;;;;;6.20;0.77;;;9.10;99.90;;;;;;5088968;28;20485;-63
2023/01/08 03:39:58;;;;;;;5.00;0.60;;;9.10;99.90;;;;;;5089212;28;20028;-64
2023/01/08 03:42:25;;;;;;;3.75;0.70;;;9.00;99.90;;;;;;5094562;28;20024;-64
2023/01/08 03:44:50;;;;;;;5.82;0.90;;;9.00;99.90;;;;;;5070010;28;20038;-64
2023/01/08 03:47:18;;;;;;;3.67;0.77;;;8.90;99.90;;;;;;5095712;28;20036;-63
2023/01/08 03:49:45;;;;;;;6.45;0.73;;;8.90;99.90;;;;;;5090808;27;20520;-63
2023/01/08 03:52:27;;;;;;;3.85;0.63;;;8.90;99.90;;;;;;5088541;28;20115;-63
2023/01/08 03:54:53;;;;;;;1.73;0.47;;;8.90;99.90;;;;;;5078895;28;20027;-64
2023/01/08 03:57:19;;;;;;;4.25;0.70;;;8.80;99.90;;;;;;5099481;27;20024;-63
2023/01/08 03:59:44;;;;;;;14.93;2.20;;;8.80;99.90;;;;;;5072951;28;20107;-63
2023/01/08 04:02:10;;;;;;;6.35;0.98;;;8.80;99.90;;;;;;5072731;28;20035;-64
2023/01/08 04:04:36;;;;;;;3.97;0.65;;;8.80;99.90;;;;;;5095768;28;20095;-63
2023/01/08 04:07:02;;;;;;;8.80;0.88;;;8.80;99.90;;;;;;5070248;28;20116;-64
2023/01/08 04:09:27;;;;;;;4.70;1.20;;;8.70;99.90;;;;;;5065090;28;20111;-63
2023/01/08 04:11:53;;;;;;;3.65;0.80;;;8.70;99.90;;;;;;5064757;28;20024;-63
2023/01/08 04:14:18;;;;;;;4.20;0.70;;;8.70;99.90;;;;;;5067811;28;20035;-64
2023/01/08 04:16:44;;;;;;;3.25;0.70;;;8.70;99.90;;;;;;5097074;28;20098;-64
2023/01/08 04:19:11;;;;;;;3.35;0.93;;;8.70;99.90;;;;;;5065365;28;20025;-64
2023/01/08 04:21:37;;;;;;;2.10;0.50;;;8.70;99.90;;;;;;5065463;28;20460;-63
2023/01/08 04:24:02;;;;;;;5.47;0.80;;;8.60;99.90;;;;;;5067633;28;20103;-64
2023/01/08 04:26:28;;;;;;;3.13;0.63;;;8.60;99.90;;;;;;5097628;28;20062;-63
2023/01/08 04:28:53;;;;;;;4.72;0.73;;;8.60;99.90;;;;;;5064521;28;20035;-64
2023/01/08 04:31:19;;;;;;;4.10;0.82;;;8.60;99.90;;;;;;5090737;28;20032;-64
2023/01/08 04:33:44;;;;;;;6.60;0.85;;;8.60;99.90;;;;;;5077206;28;20035;-64
2023/01/08 04:36:10;;;;;;;7.75;0.77;;;8.50;99.90;;;;;;5095101;28;20149;-63
2023/01/08 04:38:35;;;;;;;4.03;0.70;;;8.50;99.90;;;;;;5071889;28;20078;-63
2023/01/08 04:41:01;;;;;;;2.72;0.60;;;8.50;99.90;;;;;;5072020;28;20028;-63
2023/01/08 04:43:28;;;;;;;8.07;1.23;;;8.60;99.90;;;;;;5071762;28;20055;-63
2023/01/08 04:45:58;;;;;;;3.55;0.40;;;8.60;99.90;;;;;;5064182;28;20081;-63
2023/01/08 04:48:24;;;;;;;;;;;8.60;99.90;;;;;;5072307;28;20027;-64
2023/01/08 04:50:50;;;;;;;6.25;0.52;;;8.60;99.90;;;;;;5068897;28;19909;-63
2023/01/08 04:53:15;;;;;;;3.85;0.50;;;8.60;99.90;;;;;;5067819;28;20395;-64
2023/01/08 04:55:41;;;;;;;4.82;0.88;;;8.60;99.90;;;;;;5061995;28;20020;-63
2023/01/08 04:58:06;;;;;;;7.05;1.02;;;8.60;99.90;;;;;;5069374;28;20024;-63
2023/01/08 05:00:32;;;;;;;6.20;0.85;;;8.60;99.90;;;;;;5070742;28;20042;-63
2023/01/08 05:02:58;;;;;;;4.43;0.60;;;8.60;99.90;;;;;;5066768;28;20032;-63
2023/01/08 05:05:23;;;;;;;3.85;0.70;;;8.60;99.90;;;;;;5064394;28;20024;-64
2023/01/08 05:07:49;;;;;;;5.85;1.05;;;8.60;99.90;;;;;;5073947;27;20416;-63
2023/01/08 05:10:14;;;;;;;7.32;0.85;;;8.60;99.90;;;;;;5094614;28;20016;-63
2023/01/08 05:12:40;;;;;;;6.00;0.70;;;8.60;99.90;;;;;;5082392;28;20028;-63
2023/01/08 05:15:06;;;;;;;7.50;0.95;;;8.60;99.90;;;;;;5094249;28;20078;-64
2023/01/08 05:17:31;;;;;;;4.38;0.75;;;8.60;99.90;;;;;;5094522;28;20035;-64
2023/01/08 05:19:57;;;;;;;5.45;1.00;;;8.60;99.90;;;;;;5098153;28;20496;-63
2023/01/08 05:22:22;;;;;;;2.92;0.75;;;8.60;99.90;;;;;;5096903;28;20118;-63
2023/01/08 05:24:48;;;;;;;6.40;1.02;;;8.60;99.90;;;;;;5094633;28;20027;-63
2023/01/08 05:27:13;;;;;;;4.65;1.05;;;8.60;99.90;;;;;;5079020;28;20016;-63
2023/01/08 05:29:38;;;;;;;3.92;0.65;;;8.70;99.90;;;;;;5095211;28;20141;-63
2023/01/08 05:32:12;;;;;;;5.05;0.88;;;8.70;99.90;;;;;;5095449;28;20362;-63
2023/01/08 05:34:38;;;;;;;8.15;1.98;;;8.70;99.90;;;;;;5091652;28;20032;-64
2023/01/08 05:37:03;;;;;;;3.25;1.10;;;8.80;99.90;;;;;;5090977;28;20080;-63
2023/01/08 05:39:28;;;;;;;3.38;0.80;;;8.80;99.90;;;;;;5096768;28;20444;-63
2023/01/08 05:41:54;;;;;;;4.78;0.90;;;8.80;99.90;;;;;;5091510;28;20477;-64
2023/01/08 05:44:19;;;;;;;2.70;0.70;;;8.80;99.90;;;;;;5096165;27;20020;-64
2023/01/08 05:46:45;;;;;;;2.72;0.93;;;8.80;99.90;;;;;;5090554;28;20047;-63
2023/01/08 05:49:10;;;;;;;3.53;0.98;;;8.80;99.90;;;;;;5092717;28;20027;-63
2023/01/08 05:51:36;;;;;;;4.88;0.80;;;8.80;99.90;;;;;;5093060;28;20054;-64
2023/01/08 05:54:01;;;;;;;4.97;0.88;;;8.80;99.90;;;;;;5081893;28;20031;-63
2023/01/08 05:56:27;;;;;;;2.72;0.85;;;8.80;99.90;;;;;;5094190;28;20020;-63
2023/01/08 05:58:54;;;;;;;3.00;0.82;;;8.80;99.90;;;;;;5093090;28;20090;-63
2023/01/08 06:01:19;;;;;;;3.65;1.10;;;8.80;99.90;;;;;;5092585;28;20024;-63
2023/01/08 06:03:45;;;;;;;4.43;0.70;;;8.80;99.90;;;;;;5093828;28;20038;-63
2023/01/08 06:06:11;;;;;;;2.53;0.60;;;8.80;99.90;;;;;;5097231;28;20028;-63
2023/01/08 06:08:36;;;;;;;3.45;0.80;;;8.90;99.90;;;;;;5089961;28;20044;-64
2023/01/08 06:11:05;;;;;;;4.00;0.85;;;8.80;99.90;;;;;;5092955;28;20032;-64
2023/01/08 06:13:31;;;;;;;3.05;0.63;;;8.80;99.90;;;;;;5089792;28;20028;-63
2023/01/08 06:15:59;;;;;;;3.53;1.52;;;8.80;99.90;;;;;;5085456;28;20020;-63
2023/01/08 06:18:25;;;;;;;3.08;0.60;;;8.80;99.90;;;;;;5092043;28;20070;-64
2023/01/08 06:20:50;;;;;;;5.00;0.68;;;8.80;99.90;;;;;;5098527;28;20024;-63
2023/01/08 06:23:16;;;;;;;4.25;0.80;;;8.70;99.90;;;;;;5090761;28;20028;-63
2023/01/08 06:25:41;;;;;;;4.30;0.70;;;8.70;99.90;;;;;;5094402;28;20481;-63
2023/01/08 06:28:07;;;;;;;3.80;0.50;;;8.70;99.90;;;;;;5083998;28;20058;-64
2023/01/08 06:30:33;;;;;;;1.95;0.45;;;8.60;99.90;;;;;;5105747;28;20020;-64
2023/01/08 06:32:59;;;;;;;4.63;0.80;;;8.60;99.90;;;;;;5106693;28;20023;-63
2023/01/08 06:35:25;;;;;;;2.97;0.60;;;8.50;99.90;;;;;;5104177;28;20133;-63
2023/01/08 06:37:51;;;;;;;3.10;0.60;;;8.50;99.90;;;;;;5107420;28;20084;-64
2023/01/08 06:40:16;;;;;;;3.50;0.55;;;8.50;99.90;;;;;;5103980;28;20473;-64
2023/01/08 06:42:43;;;;;;;5.47;0.70;;;8.40;99.90;;;;;;5107857;28;20034;-64
2023/01/08 06:45:09;;;;;;;5.95;1.20;;;8.40;99.90;;;;;;5109435;27;20030;-63
2023/01/08 06:47:35;;;;;;;2.35;0.50;;;8.40;99.90;;;;;;5109376;28;20066;-63
2023/01/08 06:50:01;;;;;;;4.90;0.90;;;8.30;99.90;;;;;;5106858;28;20048;-63
2023/01/08 06:52:26;;;;;;;6.07;0.75;;;8.30;99.90;;;;;;5093610;28;20028;-64
2023/01/08 06:54:52;;;;;;;3.83;0.55;;;8.30;99.90;;;;;;5097977;28;20062;-64
2023/01/08 06:57:17;;;;;;;5.90;0.80;;;8.30;99.90;;;;;;5095832;28;20019;-64
2023/01/08 06:59:43;;;;;;;4.63;0.68;;;8.30;99.90;;;;;;5101512;28;20032;-64
2023/01/08 07:02:16;;;;;;;5.10;0.60;;;8.30;99.90;;;;;;5102652;28;20068;-64
2023/01/08 07:04:42;;;;;;;5.82;0.82;;;8.20;99.90;;;;;;5103056;28;20065;-63
2023/01/08 07:07:08;;;;;;;3.67;0.60;;;8.20;99.90;;;;;;5099960;28;20015;-63
2023/01/08 07:09:34;;;;;;;5.63;0.70;;;8.20;99.90;;;;;;5092110;28;20024;-63
2023/01/08 07:12:00;;;;;;;4.63;0.80;;;8.10;99.90;;;;;;5093118;28;20530;-64
2023/01/08 07:14:26;;;;;;;6.20;0.60;;;8.10;99.90;;;;;;5104053;28;20085;-63
2023/01/08 07:16:52;;;;;;;4.88;1.10;;;8.10;99.90;;;;;;5095634;28;20020;-64
2023/01/08 07:19:17;;;;;;;4.85;0.65;;;8.10;99.90;;;;;;5093131;28;20034;-63
2023/01/08 07:21:43;;;;;;;5.78;0.75;;;8.10;99.90;;;;;;5092963;28;20078;-63
2023/01/08 07:24:09;;;;;;;6.20;0.82;;;8.00;99.90;;;;;;5092624;28;20027;-63
2023/01/08 07:26:34;;;;;;;5.43;0.88;;;8.00;99.90;;;;;;5109175;28;20454;-64
2023/01/08 07:29:00;;;;;;;4.28;1.45;;;8.00;99.90;;;;;;5078940;28;20435;-63
2023/01/08 07:31:25;;;;;;;4.78;0.85;;;8.00;99.90;;;;;;5112889;28;20024;-63
2023/01/08 07:33:51;;;;;;;7.82;1.08;;;8.00;99.90;;;;;;5112191;28;20030;-64
2023/01/08 07:36:21;;;;;;;4.57;0.80;;;7.90;99.90;;;;;;5101191;28;20451;-63
2023/01/08 07:38:47;;;;;;;4.55;0.70;;;7.90;99.90;;;;;;5110166;28;20078;-63
2023/01/08 07:41:13;;;;;;;4.93;1.05;;;7.90;99.90;;;;;;5100183;28;20024;-63
2023/01/08 07:43:38;;;;;;;6.47;0.93;;;7.90;99.90;;;;;;5092487;28;20081;-63
2023/01/08 07:46:04;;;;;;;6.60;0.90;;;7.80;99.90;;;;;;5104129;28;20084;-63
2023/01/08 07:48:30;;;;;;;6.18;0.93;;;7.80;99.90;;;;;;5113276;27;20016;-64
2023/01/08 07:51:01;;;;;;;8.05;1.17;;;7.80;99.90;;;;;;5100275;28;20070;-64
2023/01/08 07:53:26;;;;;;;6.28;0.90;;;7.80;99.90;;;;;;5110557;28;20400;-64
2023/01/08 07:55:57;;;;;;;8.35;1.45;;;7.70;99.90;;;;;;5080387;28;20021;-63
2023/01/08 07:58:22;;;;;;;23.92;3.20;;;7.70;99.90;;;;;;5074719;28;20016;-64
2023/01/08 08:00:48;;;;;;;8.05;1.00;;;7.60;99.90;;;;;;5080821;28;20020;-63
2023/01/08 08:03:13;;;;;;;5.90;0.90;;;7.60;99.90;;;;;;5111953;28;20023;-64
2023/01/08 08:05:39;;;;;;;7.13;0.90;;;7.60;99.90;;;;;;5112582;28;20106;-64
2023/01/08 08:08:10;;;;;;;7.07;1.75;;;7.50;99.90;;;;;;5112331;28;20063;-63
2023/01/08 08:10:35;;;;;;;8.45;1.38;;;7.50;99.90;;;;;;5075761;28;20099;-63
2023/01/08 08:13:01;;;;;;;6.97;1.08;;;7.50;99.90;;;;;;5094314;28;20114;-63
2023/01/08 08:15:26;;;;;;;5.78;1.67;;;7.40;99.90;;;;;;5089676;28;20034;-64
2023/01/08 08:17:52;;;;;;;10.30;1.35;;;7.40;99.90;;;;;;5108796;28;20028;-63
2023/01/08 08:20:17;;;;;;;4.85;0.93;;;7.40;99.90;;;;;;5110746;28;20016;-63
2023/01/08 08:22:43;;;;;;;10.27;1.17;;;7.40;99.90;;;;;;5109590;28;20604;-64
2023/01/08 08:25:09;;;;;;;9.00;1.27;;;7.40;99.90;;;;;;5110821;28;20054;-63
2023/01/08 08:27:35;;;;;;;6.85;1.30;;;7.40;99.90;;;;;;5111066;28;20055;-63
2023/01/08 08:30:00;;;;;;;6.78;1.13;;;7.40;99.90;;;;;;5108829;28;20110;-63
2023/01/08 08:32:26;;;;;;;7.60;1.20;;;7.40;99.90;;;;;;5110048;28;20699;-64
2023/01/08 08:34:51;;;;;;;10.20;0.90;;;7.50;99.90;;;;;;5110307;28;20440;-64
2023/01/08 08:37:17;;;;;;;6.50;1.20;;;7.50;99.90;;;;;;5091824;28;20012;-64
2023/01/08 08:39:42;;;;;;;5.22;1.00;;;7.50;99.90;;;;;;5095890;28;20386;-63
2023/01/08 08:42:08;;;;;;;8.07;0.80;;;7.50;99.90;;;;;;5092399;28;20507;-63
2023/01/08 08:44:33;;;;;;;9.68;0.70;;;7.50;99.90;;;;;;5095133;28;20032;-63
2023/01/08 08:46:59;;;;;;;6.22;0.90;;;7.60;99.90;;;;;;5094229;28;20059;-64
2023/01/08 08:49:24;;;;;;;11.07;1.33;;;7.60;99.90;;;;;;5072923;28;20062;-63
2023/01/08 08:51:51;;;;;;;7.65;0.90;;;7.70;99.90;;;;;;5093181;28;20029;-63
2023/01/08 08:54:17;;;;;;;8.50;0.90;;;7.70;99.90;;;;;;5103978;28;20153;-64
2023/01/08 08:56:43;;;;;;;4.75;0.90;;;7.80;99.90;;;;;;5104276;28;20099;-63
2023/01/08 08:59:11;;;;;;;11.05;1.10;;;7.80;99.90;;;;;;5120155;28;20031;-63
2023/01/08 09:01:37;;;;;;;5.75;0.80;;;7.90;99.90;;;;;;5092093;28;20485;-64
2023/01/08 09:04:02;;;;;;;10.13;1.23;;;7.90;99.90;;;;;;5105957;28;20028;-64
2023/01/08 09:06:28;;;;;;;10.13;1.20;;;7.90;99.90;;;;;;5100738;28;20032;-64
2023/01/08 09:08:54;;;;;;;6.13;0.85;;;8.00;99.90;;;;;;5095639;28;20051;-64
2023/01/08 09:11:20;;;;;;;8.75;1.15;;;8.00;99.90;;;;;;5101127;28;20069;-63
2023/01/08 09:13:45;;;;;;;3.22;0.60;;;8.10;99.90;;;;;;5104488;28;20035;-63
2023/01/08 09:16:11;;;;;;;8.65;1.20;;;8.00;99.90;;;;;;5092059;28;20095;-63
2023/01/08 09:18:36;;;;;;;6.53;1.40;;;8.10;99.90;;;;;;5105097;28;20145;-63
2023/01/08 09:21:06;;;;;;;6.25;1.05;;;8.10;99.90;;;;;;5091808;28;20056;-63
2023/01/08 09:23:32;;;;;;;;;;;8.10;99.90;;;;;;5106592;28;20051;-63
2023/01/08 09:25:59;;;;;;;8.38;0.98;;;8.10;99.90;;;;;;5108736;28;19952;-64
2023/01/08 09:28:25;;;;;;;5.97;1.00;;;8.10;99.90;;;;;;5095441;28;20024;-64
2023/01/08 09:30:50;;;;;;;7.85;1.30;;;8.10;99.90;;;;;;5101322;28;20020;-63
2023/01/08 09:33:16;;;;;;;5.15;0.90;;;8.00;99.90;;;;;;5102090;28;20050;-63
2023/01/08 09:35:43;;;;;;;7.00;1.17;;;8.00;99.90;;;;;;5095119;28;21191;-63
2023/01/08 09:38:09;;;;;;;6.82;1.25;;;8.00;99.90;;;;;;5094816;28;20385;-64
2023/01/08 09:40:41;;;;;;;9.40;1.92;;;8.00;99.90;;;;;;5108206;28;20028;-64
2023/01/08 09:43:12;;;;;;;5.70;0.90;;;8.00;99.90;;;;;;5095585;28;20081;-63
2023/01/08 09:45:39;;;;;;;8.32;1.48;;;7.90;99.90;;;;;;5095569;28;20022;-63
2023/01/08 09:48:14;;;;;;;8.20;2.60;;;7.90;99.90;;;;;;5095375;28;20515;-63
2023/01/08 09:50:39;;;;;;;8.82;1.13;;;7.90;99.90;;;;;;5094503;28;20024;-63
2023/01/08 09:53:13;;;;;;;5.32;1.00;;;7.90;99.90;;;;;;5077637;28;20389;-64
2023/01/08 09:55:39;;;;;;;8.45;1.60;;;7.90;99.90;;;;;;5094525;28;20069;-64
2023/01/08 09:58:31;;;;;;;12.55;1.15;;;7.80;99.90;;;;;;5094517;28;20024;-63
2023/01/08 10:00:59;;;;;;;6.22;1.30;;;7.80;99.90;;;;;;5098534;28;20015;-63
2023/01/08 10:03:29;;;;;;;6.68;1.00;;;7.80;99.90;;;;;;5114664;28;20096;-63
2023/01/08 10:05:55;;;;;;;7.85;1.20;;;7.80;99.90;;;;;;5113270;28;20019;-63
2023/01/08 10:08:21;;;;;;;6.82;1.15;;;7.80;99.90;;;;;;5113330;28;20054;-64
2023/01/08 10:10:46;;;;;;;6.40;1.38;;;7.90;99.90;;;;;;5108959;28;20027;-64
2023/01/08 10:13:13;;;;;;;9.15;1.23;;;8.00;99.90;;;;;;5113139;28;20028;-63
2023/01/08 10:15:40;;;;;;;8.15;1.20;;;8.00;99.90;;;;;;5111420;28;20660;-63
2023/01/08 10:18:11;;;;;;;8.60;1.13;;;8.00;99.90;;;;;;5092995;28;20023;-63
2023/01/08 10:20:38;;;;;;;6.53;1.33;;;8.10;99.90;;;;;;5109786;28;20065;-63
2023/01/08 10:23:12;;;;;;;9.18;1.10;;;8.40;99.90;;;;;;5110040;28;20022;-64
2023/01/08 10:26:07;;;;;;;9.38;1.63;;;9.00;99.90;;;;;;5107697;28;20031;-63
2023/01/08 10:28:34;;;;;;;7.43;1.10;;;9.80;99.90;;;;;;5088984;28;20442;-63
2023/01/08 10:31:05;;;;;;;8.13;1.30;;;9.90;99.90;;;;;;5111209;28;20097;-63
2023/01/08 10:33:42;;;;;;;5.35;1.00;;;9.90;99.90;;;;;;5102383;28;20016;-63
2023/01/08 10:36:10;;;;;;;9.10;1.35;;;10.20;99.90;;;;;;5100385;28;20016;-63
2023/01/08 10:38:59;;;;;;;8.15;1.17;;;10.20;99.90;;;;;;5102182;28;20028;-63
2023/01/08 10:41:25;;;;;;;8.38;1.60;;;10.30;99.90;;;;;;5104835;28;20016;-63
2023/01/08 10:44:06;;;;;;;5.68;1.80;;;10.20;99.90;;;;;;5093793;28;20020;-63
2023/01/08 10:46:35;;;;;;;6.72;1.33;;;10.30;99.90;;;;;;5099240;28;20020;-64
2023/01/08 10:49:03;;;;;;;8.47;1.77;;;10.10;99.90;;;;;;5097810;27;20027;-63
2023/01/08 10:51:30;;;;;;;8.18;1.17;;;10.10;99.90;;;;;;5108777;28;20308;-63
2023/01/08 10:54:12;;;;;;;7.32;1.02;;;10.00;99.90;;;;;;5109036;28;20091;-64
2023/01/08 10:56:43;;;;;;;8.82;1.50;;;10.30;99.90;;;;;;5123872;27;20050;-64
2023/01/08 10:59:22;;;;;;;7.35;1.35;;;10.80;99.90;;;;;;5108770;28;20011;-64
2023/01/08 11:01:50;;;;;;;6.38;1.15;;;11.00;99.90;;;;;;5108562;28;20024;-64
2023/01/08 11:04:36;;;;;;;7.40;1.48;;;11.00;99.90;;;;;;5109479;28;20107;-63
2023/01/08 11:07:04;;;;;;;6.13;1.05;;;11.30;99.90;;;;;;5108997;28;20039;-64
2023/01/08 11:09:40;;;;;;;11.93;1.60;;;11.40;99.90;;;;;;5069527;28;20041;-64
2023/01/08 11:12:37;;;;;;;8.43;0.95;;;11.40;99.90;;;;;;5068590;28;20474;-64
2023/01/08 11:15:24;;;;;;;5.63;1.00;;;11.40;99.90;;;;;;5069612;28;20028;-64
2023/01/08 11:17:50;;;;;;;4.40;1.50;;;11.30;99.90;;;;;;5067240;28;20021;-64
2023/01/08 11:20:27;;;;;;;6.18;1.25;;;11.60;99.90;;;;;;5067570;28;20021;-64
2023/01/08 11:23:14;;;;;;;3.08;0.68;;;11.90;99.90;;;;;;5061365;28;20482;-64
2023/01/08 11:25:47;;;;;;;6.05;1.00;;;12.40;99.90;;;;;;5054574;28;20402;-64
2023/01/08 11:28:20;;;;;;;3.55;0.80;;;12.80;99.90;;;;;;5065341;28;20017;-64
2023/01/08 11:30:54;;;;;;;4.45;1.10;;;13.30;99.90;;;;;;5069256;28;20060;-63
2023/01/08 11:33:23;;;;;;;2.80;0.60;;;13.60;99.60;;;;;;5067169;28;20051;-64
2023/01/08 11:35:53;;;;;;;3.80;0.83;;;13.70;98.30;;;;;;5067763;28;20992;-64
2023/01/08 11:38:18;;;;;;;5.18;1.02;;;13.70;97.70;;;;;;5068734;28;20020;-64
2023/01/08 11:41:04;;;;;;;2.70;0.60;;;13.90;96.90;;;;;;5069944;28;20020;-64
2023/01/08 11:44:03;;;;;;;1.85;0.47;;;14.20;96.40;;;;;;5067778;28;20029;-64
2023/01/08 11:47:04;;;;;;;2.35;0.47;;;14.40;95.30;;;;;;5065144;28;20020;-64
2023/01/08 11:49:51;;;;;;;2.05;0.50;;;14.90;94.20;;;;;;5070546;28;20040;-64
2023/01/08 11:52:44;;;;;;;3.35;0.60;;;15.30;92.60;;;;;;5064184;28;20454;-64
2023/01/08 11:55:35;;;;;;;3.05;0.55;;;15.60;90.00;;;;;;5067348;28;20035;-64
2023/01/08 11:58:23;;;;;;;2.83;0.40;;;15.90;87.50;;;;;;5067969;28;20127;-64
2023/01/08 12:01:14;;;;;;;0.90;0.35;;;16.30;84.00;;;;;;5063074;28;20020;-64
2023/01/08 12:03:45;;;;;;;1.13;0.30;;;17.20;81.10;;;;;;5061504;28;20025;-64
2023/01/08 12:06:19;;;;;;;1.33;0.30;;;17.90;75.70;;;;;;5052087;28;20025;-64
2023/01/08 12:09:02;;;;;;;2.58;0.50;;;18.60;74.00;;;;;;5093563;28;20124;-64
2023/01/08 12:11:31;;;;;;;1.35;0.40;;;19.40;69.70;;;;;;5092614;28;20032;-64
2023/01/08 12:14:22;;;;;;;1.05;0.28;;;20.00;67.00;;;;;;5106486;28;20110;-64
2023/01/08 12:17:25;;;;;;;1.35;0.40;;;20.80;64.60;;;;;;5107036;28;20414;-64
2023/01/08 12:20:29;;;;;;;0.65;0.38;;;20.90;61.80;;;;;;5106191;28;20012;-64
2023/01/08 12:23:10;;;;;;;1.67;0.40;;;21.10;59.30;;;;;;5105899;28;20033;-64
2023/01/08 12:26:09;;;;;;;1.48;0.38;;;20.80;58.80;;;;;;5087286;28;20401;-64
2023/01/08 12:28:55;;;;;;;2.10;0.38;;;20.30;59.90;;;;;;5110192;28;20487;-64
2023/01/08 12:31:49;;;;;;;1.02;0.30;;;19.80;60.10;;;;;;5109643;28;20035;-64
2023/01/08 12:34:20;;;;;;;1.10;0.30;;;18.50;62.90;;;;;;5109610;28;20024;-64
2023/01/08 12:36:52;;;;;;;1.23;0.40;;;17.70;64.50;;;;;;5109438;28;20440;-64
2023/01/08 12:39:27;;;;;;;1.25;0.40;;;17.50;66.30;;;;;;5109004;28;20468;-64
2023/01/08 12:42:01;;;;;;;1.38;0.40;;;17.70;67.20;;;;;;5106289;28;20044;-64
2023/01/08 12:44:28;;;;;;;1.92;0.30;;;18.70;65.90;;;;;;5107529;28;20058;-64
2023/01/08 12:46:59;;;;;;;1.30;0.50;;;19.50;61.70;;;;;;5109117;28;20035;-64
2023/01/08 12:49:34;;;;;;;1.75;0.50;;;19.60;60.40;;;;;;5088015;28;20377;-64
2023/01/08 12:52:21;;;;;;;2.22;0.60;;;19.80;59.00;;;;;;5109285;28;20588;-64
2023/01/08 12:55:08;;;;;;;3.25;0.50;;;19.30;59.20;;;;;;5106434;28;20038;-64
2023/01/08 12:57:58;;;;;;;1.80;0.50;;;18.60;60.30;;;;;;5109545;28;20147;-64
2023/01/08 13:00:40;;;;;;;2.75;0.50;;;17.80;61.80;;;;;;5110136;28;20389;-64
2023/01/08 13:03:14;;;;;;;2.78;0.70;;;16.80;65.00;;;;;;5109499;28;20020;-64
2023/01/08 13:05:42;;;;;;;2.08;0.60;;;16.00;66.90;;;;;;5110635;28;20032;-64
2023/01/08 13:08:21;;;;;;;3.17;0.52;;;15.40;70.10;;;;;;5112363;28;20035;-64